sensor_id;sensor_type;location;lat;lon;timestamp;temperature;humidity
19019;DHT22;9642;50.842;4.348;2022-07-29T00:00:46;21.00;86.00
19019;DHT22;9642;50.842;4.348;2022-07-29T00:03:13;21.00;85.80
19019;DHT22;9642;50.842;4.348;2022-07-29T00:05:40;21.00;86.10
19019;DHT22;9642;50.842;4.348;2022-07-29T00:08:06;20.90;86.00
19019;DHT22;9642;50.842;4.348;2022-07-29T00:10:33;20.80;86.70
19019;DHT22;9642;50.842;4.348;2022-07-29T00:12:59;20.80;86.70
19019;DHT22;9642;50.842;4.348;2022-07-29T00:15:25;20.70;87.30
19019;DHT22;9642;50.842;4.348;2022-07-29T00:17:51;20.60;87.70
19019;DHT22;9642;50.842;4.348;2022-07-29T00:20:17;20.60;87.80
19019;DHT22;9642;50.842;4.348;2022-07-29T00:22:43;20.80;87.10
19019;DHT22;9642;50.842;4.348;2022-07-29T00:25:09;20.70;87.70
19019;DHT22;9642;50.842;4.348;2022-07-29T00:27:36;20.80;87.30
19019;DHT22;9642;50.842;4.348;2022-07-29T00:30:03;20.70;87.50
19019;DHT22;9642;50.842;4.348;2022-07-29T00:32:29;20.60;87.90
19019;DHT22;9642;50.842;4.348;2022-07-29T00:34:55;20.60;88.30
19019;DHT22;9642;50.842;4.348;2022-07-29T00:37:40;20.50;88.60
19019;DHT22;9642;50.842;4.348;2022-07-29T00:40:07;20.60;88.10
19019;DHT22;9642;50.842;4.348;2022-07-29T00:42:46;20.50;88.40
19019;DHT22;9642;50.842;4.348;2022-07-29T00:45:14;20.50;88.40
19019;DHT22;9642;50.842;4.348;2022-07-29T00:47:40;20.40;89.00
19019;DHT22;9642;50.842;4.348;2022-07-29T00:50:08;20.30;89.00
19019;DHT22;9642;50.842;4.348;2022-07-29T00:52:37;20.50;88.30
19019;DHT22;9642;50.842;4.348;2022-07-29T00:55:05;20.50;88.30
19019;DHT22;9642;50.842;4.348;2022-07-29T00:57:31;20.60;88.10
19019;DHT22;9642;50.842;4.348;2022-07-29T00:59:57;20.60;87.90
19019;DHT22;9642;50.842;4.348;2022-07-29T01:02:23;20.50;88.30
19019;DHT22;9642;50.842;4.348;2022-07-29T01:04:49;20.40;88.80
19019;DHT22;9642;50.842;4.348;2022-07-29T01:07:17;20.20;89.50
19019;DHT22;9642;50.842;4.348;2022-07-29T01:09:43;20.20;89.70
19019;DHT22;9642;50.842;4.348;2022-07-29T01:12:11;20.20;89.90
19019;DHT22;9642;50.842;4.348;2022-07-29T01:14:39;20.20;89.90
19019;DHT22;9642;50.842;4.348;2022-07-29T01:17:14;20.10;90.10
19019;DHT22;9642;50.842;4.348;2022-07-29T01:20:06;20.10;90.20
19019;DHT22;9642;50.842;4.348;2022-07-29T01:31:02;20.00;90.40
19019;DHT22;9642;50.842;4.348;2022-07-29T01:33:33;19.90;90.60
19019;DHT22;9642;50.842;4.348;2022-07-29T01:36:26;19.80;90.80
19019;DHT22;9642;50.842;4.348;2022-07-29T01:39:23;19.90;90.50
19019;DHT22;9642;50.842;4.348;2022-07-29T01:44:57;19.80;90.80
19019;DHT22;9642;50.842;4.348;2022-07-29T01:47:31;19.70;90.90
19019;DHT22;9642;50.842;4.348;2022-07-29T01:49:59;19.60;91.20
19019;DHT22;9642;50.842;4.348;2022-07-29T01:52:49;19.50;91.30
19019;DHT22;9642;50.842;4.348;2022-07-29T01:55:20;19.70;91.30
19019;DHT22;9642;50.842;4.348;2022-07-29T01:57:49;19.80;91.00
19019;DHT22;9642;50.842;4.348;2022-07-29T02:00:16;19.90;91.00
19019;DHT22;9642;50.842;4.348;2022-07-29T02:02:44;19.90;90.90
19019;DHT22;9642;50.842;4.348;2022-07-29T02:05:14;19.90;91.00
19019;DHT22;9642;50.842;4.348;2022-07-29T02:07:43;19.80;91.10
19019;DHT22;9642;50.842;4.348;2022-07-29T02:10:11;19.80;90.90
19019;DHT22;9642;50.842;4.348;2022-07-29T02:12:39;19.70;91.20
19019;DHT22;9642;50.842;4.348;2022-07-29T02:15:06;19.70;91.40
19019;DHT22;9642;50.842;4.348;2022-07-29T02:17:38;19.70;91.30
19019;DHT22;9642;50.842;4.348;2022-07-29T02:20:05;19.60;91.60
19019;DHT22;9642;50.842;4.348;2022-07-29T02:22:35;19.60;91.60
19019;DHT22;9642;50.842;4.348;2022-07-29T02:25:03;19.60;91.50
19019;DHT22;9642;50.842;4.348;2022-07-29T02:27:31;19.50;91.70
19019;DHT22;9642;50.842;4.348;2022-07-29T02:30:01;19.40;91.90
19019;DHT22;9642;50.842;4.348;2022-07-29T02:32:28;19.30;91.90
19019;DHT22;9642;50.842;4.348;2022-07-29T02:34:55;19.30;92.10
19019;DHT22;9642;50.842;4.348;2022-07-29T02:37:23;19.20;92.20
19019;DHT22;9642;50.842;4.348;2022-07-29T02:39:52;19.20;92.30
19019;DHT22;9642;50.842;4.348;2022-07-29T02:42:21;19.20;92.50
19019;DHT22;9642;50.842;4.348;2022-07-29T02:44:48;19.10;92.60
19019;DHT22;9642;50.842;4.348;2022-07-29T02:47:22;19.00;92.60
19019;DHT22;9642;50.842;4.348;2022-07-29T02:52:28;19.00;92.70
19019;DHT22;9642;50.842;4.348;2022-07-29T02:54:59;19.00;92.70
19019;DHT22;9642;50.842;4.348;2022-07-29T02:58:02;19.10;92.50
19019;DHT22;9642;50.842;4.348;2022-07-29T03:00:31;19.20;92.40
19019;DHT22;9642;50.842;4.348;2022-07-29T03:03:00;19.20;92.50
19019;DHT22;9642;50.842;4.348;2022-07-29T03:05:29;19.20;92.50
19019;DHT22;9642;50.842;4.348;2022-07-29T03:08:03;19.10;92.90
19019;DHT22;9642;50.842;4.348;2022-07-29T03:10:30;19.10;92.70
19019;DHT22;9642;50.842;4.348;2022-07-29T03:12:57;19.00;92.90
19019;DHT22;9642;50.842;4.348;2022-07-29T03:15:24;19.00;93.10
19019;DHT22;9642;50.842;4.348;2022-07-29T03:17:51;18.90;93.10
19019;DHT22;9642;50.842;4.348;2022-07-29T03:20:18;18.90;93.30
19019;DHT22;9642;50.842;4.348;2022-07-29T03:22:44;18.90;93.00
19019;DHT22;9642;50.842;4.348;2022-07-29T03:25:14;18.90;93.00
19019;DHT22;9642;50.842;4.348;2022-07-29T03:27:41;19.10;92.80
19019;DHT22;9642;50.842;4.348;2022-07-29T03:30:07;19.10;92.80
19019;DHT22;9642;50.842;4.348;2022-07-29T03:32:34;19.00;93.00
19019;DHT22;9642;50.842;4.348;2022-07-29T03:35:00;18.80;93.40
19019;DHT22;9642;50.842;4.348;2022-07-29T03:37:26;18.80;93.40
19019;DHT22;9642;50.842;4.348;2022-07-29T03:39:55;18.80;93.40
19019;DHT22;9642;50.842;4.348;2022-07-29T03:42:23;19.00;93.10
19019;DHT22;9642;50.842;4.348;2022-07-29T03:44:50;18.90;93.30
19019;DHT22;9642;50.842;4.348;2022-07-29T03:47:20;18.80;93.50
19019;DHT22;9642;50.842;4.348;2022-07-29T03:49:50;18.80;93.70
19019;DHT22;9642;50.842;4.348;2022-07-29T03:52:18;18.80;93.50
19019;DHT22;9642;50.842;4.348;2022-07-29T03:54:44;18.90;93.30
19019;DHT22;9642;50.842;4.348;2022-07-29T03:57:11;19.00;93.20
19019;DHT22;9642;50.842;4.348;2022-07-29T03:59:38;18.80;93.40
19019;DHT22;9642;50.842;4.348;2022-07-29T04:02:05;18.80;93.60
19019;DHT22;9642;50.842;4.348;2022-07-29T04:04:34;18.80;93.50
19019;DHT22;9642;50.842;4.348;2022-07-29T04:07:00;18.70;93.80
19019;DHT22;9642;50.842;4.348;2022-07-29T04:09:26;18.60;93.90
19019;DHT22;9642;50.842;4.348;2022-07-29T04:11:52;18.60;94.10
19019;DHT22;9642;50.842;4.348;2022-07-29T04:14:18;18.60;94.10
19019;DHT22;9642;50.842;4.348;2022-07-29T04:16:44;18.70;93.90
19019;DHT22;9642;50.842;4.348;2022-07-29T04:19:10;18.70;93.90
19019;DHT22;9642;50.842;4.348;2022-07-29T04:21:40;18.80;94.20
19019;DHT22;9642;50.842;4.348;2022-07-29T04:24:06;18.80;93.90
19019;DHT22;9642;50.842;4.348;2022-07-29T04:26:33;18.80;93.70
19019;DHT22;9642;50.842;4.348;2022-07-29T04:28:59;18.90;93.60
19019;DHT22;9642;50.842;4.348;2022-07-29T04:31:25;18.80;93.80
19019;DHT22;9642;50.842;4.348;2022-07-29T04:33:51;18.70;94.20
19019;DHT22;9642;50.842;4.348;2022-07-29T04:36:17;18.60;94.40
19019;DHT22;9642;50.842;4.348;2022-07-29T04:38:43;18.60;94.40
19019;DHT22;9642;50.842;4.348;2022-07-29T04:41:09;18.60;94.40
19019;DHT22;9642;50.842;4.348;2022-07-29T04:43:36;18.50;94.70
19019;DHT22;9642;50.842;4.348;2022-07-29T04:46:03;18.60;94.60
19019;DHT22;9642;50.842;4.348;2022-07-29T04:48:29;18.50;94.70
19019;DHT22;9642;50.842;4.348;2022-07-29T04:50:55;18.30;94.80
19019;DHT22;9642;50.842;4.348;2022-07-29T04:53:22;18.30;95.20
19019;DHT22;9642;50.842;4.348;2022-07-29T04:55:48;18.30;95.10
19019;DHT22;9642;50.842;4.348;2022-07-29T04:58:14;18.30;95.20
19019;DHT22;9642;50.842;4.348;2022-07-29T05:00:40;18.20;95.20
19019;DHT22;9642;50.842;4.348;2022-07-29T05:03:06;18.20;95.40
19019;DHT22;9642;50.842;4.348;2022-07-29T05:05:32;18.30;95.40
19019;DHT22;9642;50.842;4.348;2022-07-29T05:07:58;18.50;95.10
19019;DHT22;9642;50.842;4.348;2022-07-29T05:10:24;18.50;95.00
19019;DHT22;9642;50.842;4.348;2022-07-29T05:12:50;18.60;94.70
19019;DHT22;9642;50.842;4.348;2022-07-29T05:15:16;18.80;94.30
19019;DHT22;9642;50.842;4.348;2022-07-29T05:17:44;18.70;94.60
19019;DHT22;9642;50.842;4.348;2022-07-29T05:20:10;18.50;94.70
19019;DHT22;9642;50.842;4.348;2022-07-29T05:22:36;18.50;94.90
19019;DHT22;9642;50.842;4.348;2022-07-29T05:25:02;18.50;94.90
19019;DHT22;9642;50.842;4.348;2022-07-29T05:27:28;18.60;94.70
19019;DHT22;9642;50.842;4.348;2022-07-29T05:29:54;18.60;94.80
19019;DHT22;9642;50.842;4.348;2022-07-29T05:32:20;18.50;95.00
19019;DHT22;9642;50.842;4.348;2022-07-29T05:34:46;18.60;95.00
19019;DHT22;9642;50.842;4.348;2022-07-29T05:37:11;18.50;94.90
19019;DHT22;9642;50.842;4.348;2022-07-29T05:39:39;18.70;94.50
19019;DHT22;9642;50.842;4.348;2022-07-29T05:42:09;18.80;94.70
19019;DHT22;9642;50.842;4.348;2022-07-29T05:44:39;18.90;94.40
19019;DHT22;9642;50.842;4.348;2022-07-29T05:47:05;18.80;94.50
19019;DHT22;9642;50.842;4.348;2022-07-29T05:49:32;18.90;94.60
19019;DHT22;9642;50.842;4.348;2022-07-29T05:51:58;18.80;94.60
19019;DHT22;9642;50.842;4.348;2022-07-29T05:54:24;19.00;94.40
19019;DHT22;9642;50.842;4.348;2022-07-29T05:56:51;19.20;93.90
19019;DHT22;9642;50.842;4.348;2022-07-29T05:59:17;18.80;94.40
19019;DHT22;9642;50.842;4.348;2022-07-29T06:01:43;19.00;94.40
19019;DHT22;9642;50.842;4.348;2022-07-29T06:04:09;19.00;94.50
19019;DHT22;9642;50.842;4.348;2022-07-29T06:06:35;18.90;94.60
19019;DHT22;9642;50.842;4.348;2022-07-29T06:09:02;18.80;95.00
19019;DHT22;9642;50.842;4.348;2022-07-29T06:11:28;18.80;94.90
19019;DHT22;9642;50.842;4.348;2022-07-29T06:13:54;19.00;94.60
19019;DHT22;9642;50.842;4.348;2022-07-29T06:16:20;19.10;94.40
19019;DHT22;9642;50.842;4.348;2022-07-29T06:18:46;19.00;94.50
19019;DHT22;9642;50.842;4.348;2022-07-29T06:21:12;18.90;95.00
19019;DHT22;9642;50.842;4.348;2022-07-29T06:23:38;19.00;94.70
19019;DHT22;9642;50.842;4.348;2022-07-29T06:26:05;19.20;94.60
19019;DHT22;9642;50.842;4.348;2022-07-29T06:28:34;19.30;94.30
19019;DHT22;9642;50.842;4.348;2022-07-29T06:31:20;19.30;94.00
19019;DHT22;9642;50.842;4.348;2022-07-29T06:33:46;19.40;94.20
19019;DHT22;9642;50.842;4.348;2022-07-29T06:36:12;19.60;93.80
19019;DHT22;9642;50.842;4.348;2022-07-29T06:38:38;19.60;93.60
19019;DHT22;9642;50.842;4.348;2022-07-29T06:41:04;19.50;93.90
19019;DHT22;9642;50.842;4.348;2022-07-29T06:43:37;19.60;93.80
19019;DHT22;9642;50.842;4.348;2022-07-29T06:46:06;19.60;93.70
19019;DHT22;9642;50.842;4.348;2022-07-29T06:48:33;19.70;93.60
19019;DHT22;9642;50.842;4.348;2022-07-29T06:51:00;19.80;93.70
19019;DHT22;9642;50.842;4.348;2022-07-29T06:53:26;20.10;93.30
19019;DHT22;9642;50.842;4.348;2022-07-29T06:55:53;20.20;92.90
19019;DHT22;9642;50.842;4.348;2022-07-29T06:58:19;20.50;92.60
19019;DHT22;9642;50.842;4.348;2022-07-29T07:01:02;20.90;92.20
19019;DHT22;9642;50.842;4.348;2022-07-29T07:03:29;21.20;91.50
19019;DHT22;9642;50.842;4.348;2022-07-29T07:05:55;21.20;91.20
19019;DHT22;9642;50.842;4.348;2022-07-29T07:08:22;21.20;91.10
19019;DHT22;9642;50.842;4.348;2022-07-29T07:10:50;21.30;91.10
19019;DHT22;9642;50.842;4.348;2022-07-29T07:13:16;21.40;90.90
19019;DHT22;9642;50.842;4.348;2022-07-29T07:15:44;21.50;90.80
19019;DHT22;9642;50.842;4.348;2022-07-29T07:18:11;21.60;90.80
19019;DHT22;9642;50.842;4.348;2022-07-29T07:20:37;21.60;90.60
19019;DHT22;9642;50.842;4.348;2022-07-29T07:23:03;21.50;90.80
19019;DHT22;9642;50.842;4.348;2022-07-29T07:25:30;21.70;90.70
19019;DHT22;9642;50.842;4.348;2022-07-29T07:27:56;21.60;90.70
19019;DHT22;9642;50.842;4.348;2022-07-29T07:30:22;21.40;91.10
19019;DHT22;9642;50.842;4.348;2022-07-29T07:32:48;21.10;91.40
19019;DHT22;9642;50.842;4.348;2022-07-29T07:35:14;21.00;91.90
19019;DHT22;9642;50.842;4.348;2022-07-29T07:37:43;20.80;92.20
19019;DHT22;9642;50.842;4.348;2022-07-29T07:40:10;20.90;92.40
19019;DHT22;9642;50.842;4.348;2022-07-29T07:42:38;20.90;92.40
19019;DHT22;9642;50.842;4.348;2022-07-29T07:45:04;21.10;92.00
19019;DHT22;9642;50.842;4.348;2022-07-29T07:47:32;21.20;92.00
19019;DHT22;9642;50.842;4.348;2022-07-29T07:49:58;21.20;92.00
19019;DHT22;9642;50.842;4.348;2022-07-29T07:52:24;21.40;91.80
19019;DHT22;9642;50.842;4.348;2022-07-29T07:54:50;21.70;91.30
19019;DHT22;9642;50.842;4.348;2022-07-29T07:57:36;21.90;90.70
19019;DHT22;9642;50.842;4.348;2022-07-29T08:00:03;21.90;90.60
19019;DHT22;9642;50.842;4.348;2022-07-29T08:02:38;21.40;91.50
19019;DHT22;9642;50.842;4.348;2022-07-29T08:05:06;21.50;91.60
19019;DHT22;9642;50.842;4.348;2022-07-29T08:07:33;21.80;91.20
19019;DHT22;9642;50.842;4.348;2022-07-29T08:10:01;22.00;90.80
19019;DHT22;9642;50.842;4.348;2022-07-29T08:12:30;21.90;90.80
19019;DHT22;9642;50.842;4.348;2022-07-29T08:14:56;21.80;91.10
19019;DHT22;9642;50.842;4.348;2022-07-29T08:17:22;22.00;90.80
19019;DHT22;9642;50.842;4.348;2022-07-29T08:19:48;22.10;90.70
19019;DHT22;9642;50.842;4.348;2022-07-29T08:22:15;22.30;90.20
19019;DHT22;9642;50.842;4.348;2022-07-29T08:25:07;22.40;90.30
19019;DHT22;9642;50.842;4.348;2022-07-29T08:28:07;22.80;89.00
19019;DHT22;9642;50.842;4.348;2022-07-29T08:30:34;22.50;89.50
19019;DHT22;9642;50.842;4.348;2022-07-29T08:33:05;22.40;90.00
19019;DHT22;9642;50.842;4.348;2022-07-29T08:39:21;22.70;89.30
19019;DHT22;9642;50.842;4.348;2022-07-29T08:41:47;22.70;89.00
19019;DHT22;9642;50.842;4.348;2022-07-29T08:44:16;22.70;89.50
19019;DHT22;9642;50.842;4.348;2022-07-29T08:46:42;22.90;88.40
19019;DHT22;9642;50.842;4.348;2022-07-29T08:49:09;23.10;88.20
19019;DHT22;9642;50.842;4.348;2022-07-29T08:51:36;23.40;87.40
19019;DHT22;9642;50.842;4.348;2022-07-29T08:54:02;23.60;86.90
19019;DHT22;9642;50.842;4.348;2022-07-29T08:56:44;25.20;83.00
19019;DHT22;9642;50.842;4.348;2022-07-29T08:59:11;28.20;73.00
19019;DHT22;9642;50.842;4.348;2022-07-29T09:01:38;30.30;65.40
19019;DHT22;9642;50.842;4.348;2022-07-29T09:04:09;31.70;61.90
19019;DHT22;9642;50.842;4.348;2022-07-29T09:06:39;32.90;58.30
19019;DHT22;9642;50.842;4.348;2022-07-29T09:09:07;33.30;56.80
19019;DHT22;9642;50.842;4.348;2022-07-29T09:11:33;33.80;54.60
19019;DHT22;9642;50.842;4.348;2022-07-29T09:14:00;34.00;54.10
19019;DHT22;9642;50.842;4.348;2022-07-29T09:16:26;34.90;52.70
19019;DHT22;9642;50.842;4.348;2022-07-29T09:18:51;35.20;51.70
19019;DHT22;9642;50.842;4.348;2022-07-29T09:21:18;34.80;51.80
19019;DHT22;9642;50.842;4.348;2022-07-29T09:24:08;35.60;50.70
19019;DHT22;9642;50.842;4.348;2022-07-29T09:26:45;35.30;49.80
19019;DHT22;9642;50.842;4.348;2022-07-29T09:29:15;35.00;50.00
19019;DHT22;9642;50.842;4.348;2022-07-29T09:31:44;34.80;50.10
19019;DHT22;9642;50.842;4.348;2022-07-29T09:34:11;35.30;50.10
19019;DHT22;9642;50.842;4.348;2022-07-29T09:36:44;35.40;49.50
19019;DHT22;9642;50.842;4.348;2022-07-29T09:39:11;35.00;50.20
19019;DHT22;9642;50.842;4.348;2022-07-29T09:41:45;35.00;50.40
19019;DHT22;9642;50.842;4.348;2022-07-29T09:44:12;35.60;48.90
19019;DHT22;9642;50.842;4.348;2022-07-29T09:46:37;35.50;50.10
19019;DHT22;9642;50.842;4.348;2022-07-29T09:49:12;35.00;49.50
19019;DHT22;9642;50.842;4.348;2022-07-29T09:51:38;35.00;49.60
19019;DHT22;9642;50.842;4.348;2022-07-29T09:54:24;34.80;49.70
19019;DHT22;9642;50.842;4.348;2022-07-29T09:56:52;34.90;49.30
19019;DHT22;9642;50.842;4.348;2022-07-29T09:59:19;34.50;50.20
19019;DHT22;9642;50.842;4.348;2022-07-29T10:01:52;34.70;49.20
19019;DHT22;9642;50.842;4.348;2022-07-29T10:04:19;34.60;49.60
19019;DHT22;9642;50.842;4.348;2022-07-29T10:06:58;35.30;49.10
19019;DHT22;9642;50.842;4.348;2022-07-29T10:09:25;35.70;47.70
19019;DHT22;9642;50.842;4.348;2022-07-29T10:12:10;35.50;47.50
19019;DHT22;9642;50.842;4.348;2022-07-29T10:14:37;34.80;48.70
19019;DHT22;9642;50.842;4.348;2022-07-29T10:17:05;34.60;47.90
19019;DHT22;9642;50.842;4.348;2022-07-29T10:19:31;34.80;48.10
19019;DHT22;9642;50.842;4.348;2022-07-29T10:21:59;34.10;49.50
19019;DHT22;9642;50.842;4.348;2022-07-29T10:24:30;34.60;49.90
19019;DHT22;9642;50.842;4.348;2022-07-29T10:26:58;34.20;49.40
19019;DHT22;9642;50.842;4.348;2022-07-29T10:29:25;34.10;49.10
19019;DHT22;9642;50.842;4.348;2022-07-29T10:43:40;33.90;49.00
19019;DHT22;9642;50.842;4.348;2022-07-29T10:46:07;35.80;47.20
19019;DHT22;9642;50.842;4.348;2022-07-29T10:48:33;35.60;46.50
19019;DHT22;9642;50.842;4.348;2022-07-29T10:51:01;36.60;46.20
19019;DHT22;9642;50.842;4.348;2022-07-29T10:53:51;35.90;44.50
19019;DHT22;9642;50.842;4.348;2022-07-29T10:56:26;35.10;45.90
19019;DHT22;9642;50.842;4.348;2022-07-29T11:01:50;34.90;45.80
19019;DHT22;9642;50.842;4.348;2022-07-29T11:07:11;32.70;50.00
19019;DHT22;9642;50.842;4.348;2022-07-29T11:09:38;33.50;49.40
19019;DHT22;9642;50.842;4.348;2022-07-29T11:22:58;32.20;49.40
19019;DHT22;9642;50.842;4.348;2022-07-29T11:25:24;30.80;51.80
19019;DHT22;9642;50.842;4.348;2022-07-29T11:27:52;30.40;51.40
19019;DHT22;9642;50.842;4.348;2022-07-29T11:30:19;30.00;51.80
19019;DHT22;9642;50.842;4.348;2022-07-29T11:32:46;30.60;52.10
19019;DHT22;9642;50.842;4.348;2022-07-29T11:35:18;31.40;50.20
19019;DHT22;9642;50.842;4.348;2022-07-29T11:37:46;31.90;48.70
19019;DHT22;9642;50.842;4.348;2022-07-29T11:40:14;32.20;49.90
19019;DHT22;9642;50.842;4.348;2022-07-29T11:42:42;32.90;50.20
19019;DHT22;9642;50.842;4.348;2022-07-29T11:47:48;33.50;48.10
19019;DHT22;9642;50.842;4.348;2022-07-29T11:50:36;33.30;47.90
19019;DHT22;9642;50.842;4.348;2022-07-29T11:53:12;32.70;48.40
19019;DHT22;9642;50.842;4.348;2022-07-29T11:55:40;32.10;48.90
19019;DHT22;9642;50.842;4.348;2022-07-29T11:58:09;31.30;49.50
19019;DHT22;9642;50.842;4.348;2022-07-29T12:00:39;30.60;49.60
19019;DHT22;9642;50.842;4.348;2022-07-29T12:03:07;30.30;51.00
19019;DHT22;9642;50.842;4.348;2022-07-29T12:05:42;31.00;50.90
19019;DHT22;9642;50.842;4.348;2022-07-29T12:08:20;31.50;50.00
19019;DHT22;9642;50.842;4.348;2022-07-29T12:10:50;31.70;48.60
19019;DHT22;9642;50.842;4.348;2022-07-29T12:13:18;31.40;49.30
19019;DHT22;9642;50.842;4.348;2022-07-29T12:15:55;31.20;49.80
19019;DHT22;9642;50.842;4.348;2022-07-29T12:18:23;32.00;49.60
19019;DHT22;9642;50.842;4.348;2022-07-29T12:20:57;33.20;47.50
19019;DHT22;9642;50.842;4.348;2022-07-29T12:23:23;32.30;48.50
19019;DHT22;9642;50.842;4.348;2022-07-29T12:25:49;31.50;50.10
19019;DHT22;9642;50.842;4.348;2022-07-29T12:28:15;31.20;50.30
19019;DHT22;9642;50.842;4.348;2022-07-29T12:30:46;31.00;50.60
19019;DHT22;9642;50.842;4.348;2022-07-29T12:33:25;30.60;51.30
19019;DHT22;9642;50.842;4.348;2022-07-29T12:35:55;29.90;52.10
19019;DHT22;9642;50.842;4.348;2022-07-29T12:38:21;30.30;51.80
19019;DHT22;9642;50.842;4.348;2022-07-29T12:40:48;30.60;51.30
19019;DHT22;9642;50.842;4.348;2022-07-29T12:43:19;30.10;51.90
19019;DHT22;9642;50.842;4.348;2022-07-29T12:45:50;30.00;52.60
19019;DHT22;9642;50.842;4.348;2022-07-29T12:48:17;29.50;53.60
19019;DHT22;9642;50.842;4.348;2022-07-29T12:53:19;29.90;54.20
19019;DHT22;9642;50.842;4.348;2022-07-29T12:55:48;30.10;53.20
19019;DHT22;9642;50.842;4.348;2022-07-29T13:01:12;30.10;52.20
19019;DHT22;9642;50.842;4.348;2022-07-29T13:03:54;30.00;53.30
19019;DHT22;9642;50.842;4.348;2022-07-29T13:06:41;29.30;53.20
19019;DHT22;9642;50.842;4.348;2022-07-29T13:09:19;28.90;53.80
19019;DHT22;9642;50.842;4.348;2022-07-29T13:11:52;28.50;54.80
19019;DHT22;9642;50.842;4.348;2022-07-29T13:14:33;28.30;55.40
19019;DHT22;9642;50.842;4.348;2022-07-29T13:17:04;28.10;56.30
19019;DHT22;9642;50.842;4.348;2022-07-29T13:20:05;28.30;56.60
19019;DHT22;9642;50.842;4.348;2022-07-29T13:22:32;28.40;56.00
19019;DHT22;9642;50.842;4.348;2022-07-29T13:24:59;28.40;56.10
19019;DHT22;9642;50.842;4.348;2022-07-29T13:27:30;28.70;56.20
19019;DHT22;9642;50.842;4.348;2022-07-29T13:29:58;28.80;55.40
19019;DHT22;9642;50.842;4.348;2022-07-29T13:32:27;29.00;55.40
19019;DHT22;9642;50.842;4.348;2022-07-29T13:34:53;29.20;54.80
19019;DHT22;9642;50.842;4.348;2022-07-29T13:37:19;29.20;54.70
19019;DHT22;9642;50.842;4.348;2022-07-29T13:39:45;29.10;54.10
19019;DHT22;9642;50.842;4.348;2022-07-29T13:42:13;29.10;54.60
19019;DHT22;9642;50.842;4.348;2022-07-29T13:44:40;29.20;54.20
19019;DHT22;9642;50.842;4.348;2022-07-29T13:47:07;28.90;54.30
19019;DHT22;9642;50.842;4.348;2022-07-29T13:49:33;28.90;54.70
19019;DHT22;9642;50.842;4.348;2022-07-29T13:51:59;28.70;54.20
19019;DHT22;9642;50.842;4.348;2022-07-29T13:54:25;28.70;54.50
19019;DHT22;9642;50.842;4.348;2022-07-29T13:56:51;28.60;54.50
19019;DHT22;9642;50.842;4.348;2022-07-29T13:59:18;28.60;55.50
19019;DHT22;9642;50.842;4.348;2022-07-29T14:01:44;28.70;54.70
19019;DHT22;9642;50.842;4.348;2022-07-29T14:04:10;28.80;54.50
19019;DHT22;9642;50.842;4.348;2022-07-29T14:06:37;28.80;54.60
19019;DHT22;9642;50.842;4.348;2022-07-29T14:09:04;28.70;54.30
19019;DHT22;9642;50.842;4.348;2022-07-29T14:11:35;28.90;53.40
19019;DHT22;9642;50.842;4.348;2022-07-29T14:14:01;28.80;53.70
19019;DHT22;9642;50.842;4.348;2022-07-29T14:16:27;28.90;53.20
19019;DHT22;9642;50.842;4.348;2022-07-29T14:18:53;29.10;53.90
19019;DHT22;9642;50.842;4.348;2022-07-29T14:21:19;28.70;54.60
19019;DHT22;9642;50.842;4.348;2022-07-29T14:23:44;28.50;55.60
19019;DHT22;9642;50.842;4.348;2022-07-29T14:26:11;28.10;56.30
19019;DHT22;9642;50.842;4.348;2022-07-29T14:28:36;28.00;57.40
19019;DHT22;9642;50.842;4.348;2022-07-29T14:31:02;28.00;56.50
19019;DHT22;9642;50.842;4.348;2022-07-29T14:33:28;27.70;57.30
19019;DHT22;9642;50.842;4.348;2022-07-29T14:35:54;27.60;56.20
19019;DHT22;9642;50.842;4.348;2022-07-29T14:38:20;27.70;56.00
19019;DHT22;9642;50.842;4.348;2022-07-29T14:40:46;27.90;55.60
19019;DHT22;9642;50.842;4.348;2022-07-29T14:43:13;27.80;56.20
19019;DHT22;9642;50.842;4.348;2022-07-29T14:45:40;28.30;55.90
19019;DHT22;9642;50.842;4.348;2022-07-29T14:48:06;28.70;54.70
19019;DHT22;9642;50.842;4.348;2022-07-29T14:50:32;29.00;54.30
19019;DHT22;9642;50.842;4.348;2022-07-29T14:52:59;29.00;54.90
19019;DHT22;9642;50.842;4.348;2022-07-29T14:55:25;29.20;54.70
19019;DHT22;9642;50.842;4.348;2022-07-29T14:57:51;29.50;54.40
19019;DHT22;9642;50.842;4.348;2022-07-29T15:00:17;29.50;53.20
19019;DHT22;9642;50.842;4.348;2022-07-29T15:02:43;29.60;53.50
19019;DHT22;9642;50.842;4.348;2022-07-29T15:05:09;29.80;53.30
19019;DHT22;9642;50.842;4.348;2022-07-29T15:07:35;29.80;52.90
19019;DHT22;9642;50.842;4.348;2022-07-29T15:10:01;29.30;53.20
19019;DHT22;9642;50.842;4.348;2022-07-29T15:12:30;28.80;54.50
19019;DHT22;9642;50.842;4.348;2022-07-29T15:14:56;29.00;55.10
19019;DHT22;9642;50.842;4.348;2022-07-29T15:17:22;29.20;54.30
19019;DHT22;9642;50.842;4.348;2022-07-29T15:19:48;29.30;53.80
19019;DHT22;9642;50.842;4.348;2022-07-29T15:22:14;29.30;53.40
19019;DHT22;9642;50.842;4.348;2022-07-29T15:24:40;29.10;53.70
19019;DHT22;9642;50.842;4.348;2022-07-29T15:27:06;29.30;54.10
19019;DHT22;9642;50.842;4.348;2022-07-29T15:29:32;29.50;53.20
19019;DHT22;9642;50.842;4.348;2022-07-29T15:31:58;29.30;53.70
19019;DHT22;9642;50.842;4.348;2022-07-29T15:34:24;29.00;54.70
19019;DHT22;9642;50.842;4.348;2022-07-29T15:36:50;29.00;54.00
19019;DHT22;9642;50.842;4.348;2022-07-29T15:39:17;28.90;54.00
19019;DHT22;9642;50.842;4.348;2022-07-29T15:41:43;29.00;54.00
19019;DHT22;9642;50.842;4.348;2022-07-29T15:44:08;28.80;54.60
19019;DHT22;9642;50.842;4.348;2022-07-29T15:46:35;28.90;54.60
19019;DHT22;9642;50.842;4.348;2022-07-29T15:49:19;28.90;54.40
19019;DHT22;9642;50.842;4.348;2022-07-29T15:51:45;28.70;54.30
19019;DHT22;9642;50.842;4.348;2022-07-29T15:54:11;28.60;54.50
19019;DHT22;9642;50.842;4.348;2022-07-29T15:56:37;28.30;54.70
19019;DHT22;9642;50.842;4.348;2022-07-29T15:59:03;28.30;55.00
19019;DHT22;9642;50.842;4.348;2022-07-29T16:01:29;28.60;54.30
19019;DHT22;9642;50.842;4.348;2022-07-29T16:03:56;28.60;54.20
19019;DHT22;9642;50.842;4.348;2022-07-29T16:06:22;28.50;54.80
19019;DHT22;9642;50.842;4.348;2022-07-29T16:08:48;28.10;55.60
19019;DHT22;9642;50.842;4.348;2022-07-29T16:11:14;28.00;55.60
19019;DHT22;9642;50.842;4.348;2022-07-29T16:13:40;27.90;55.50
19019;DHT22;9642;50.842;4.348;2022-07-29T16:16:06;28.00;55.40
19019;DHT22;9642;50.842;4.348;2022-07-29T16:18:32;28.00;55.50
19019;DHT22;9642;50.842;4.348;2022-07-29T16:20:59;28.10;55.60
19019;DHT22;9642;50.842;4.348;2022-07-29T16:23:25;28.00;55.60
19019;DHT22;9642;50.842;4.348;2022-07-29T16:25:51;28.00;56.10
19019;DHT22;9642;50.842;4.348;2022-07-29T16:28:16;28.00;55.50
19019;DHT22;9642;50.842;4.348;2022-07-29T16:30:43;27.70;56.30
19019;DHT22;9642;50.842;4.348;2022-07-29T16:33:09;27.70;56.50
19019;DHT22;9642;50.842;4.348;2022-07-29T16:35:34;27.50;56.70
19019;DHT22;9642;50.842;4.348;2022-07-29T16:38:03;27.40;57.20
19019;DHT22;9642;50.842;4.348;2022-07-29T16:40:29;27.40;57.20
19019;DHT22;9642;50.842;4.348;2022-07-29T16:42:55;27.30;57.50
19019;DHT22;9642;50.842;4.348;2022-07-29T16:45:21;27.30;57.60
19019;DHT22;9642;50.842;4.348;2022-07-29T16:47:47;27.20;57.80